sensor_id;sensor_type;location;lat;lon;timestamp;temperature;humidity
1329;DHT22;658;48.820;9.354;2022-07-11T00:00:33;22.30;51.10
1329;DHT22;658;48.820;9.354;2022-07-11T00:04:35;22.20;50.90
1329;DHT22;658;48.820;9.354;2022-07-11T00:08:35;22.20;51.00
1329;DHT22;658;48.820;9.354;2022-07-11T00:12:36;22.30;51.20
1329;DHT22;658;48.820;9.354;2022-07-11T00:16:36;22.20;51.00
1329;DHT22;658;48.820;9.354;2022-07-11T00:20:37;22.20;51.00
1329;DHT22;658;48.820;9.354;2022-07-11T00:24:37;22.20;51.10
1329;DHT22;658;48.820;9.354;2022-07-11T00:28:38;22.20;51.20
1329;DHT22;658;48.820;9.354;2022-07-11T00:32:39;22.20;51.20
1329;DHT22;658;48.820;9.354;2022-07-11T00:36:40;22.20;51.30
1329;DHT22;658;48.820;9.354;2022-07-11T00:40:40;22.20;51.30
1329;DHT22;658;48.820;9.354;2022-07-11T00:44:41;22.10;51.30
1329;DHT22;658;48.820;9.354;2022-07-11T00:48:42;22.10;51.40
1329;DHT22;658;48.820;9.354;2022-07-11T00:52:42;22.10;51.50
1329;DHT22;658;48.820;9.354;2022-07-11T00:56:43;22.10;51.60
1329;DHT22;658;48.820;9.354;2022-07-11T01:00:44;22.10;51.50
1329;DHT22;658;48.820;9.354;2022-07-11T01:04:44;22.10;51.40
1329;DHT22;658;48.820;9.354;2022-07-11T01:08:45;22.00;51.40
1329;DHT22;658;48.820;9.354;2022-07-11T01:12:46;22.00;51.50
1329;DHT22;658;48.820;9.354;2022-07-11T01:16:47;22.00;51.50
1329;DHT22;658;48.820;9.354;2022-07-11T01:20:47;22.00;51.50
1329;DHT22;658;48.820;9.354;2022-07-11T01:24:48;22.00;51.60
1329;DHT22;658;48.820;9.354;2022-07-11T01:28:49;22.00;51.60
1329;DHT22;658;48.820;9.354;2022-07-11T01:32:51;22.00;51.60
1329;DHT22;658;48.820;9.354;2022-07-11T01:36:52;22.00;51.70
1329;DHT22;658;48.820;9.354;2022-07-11T01:40:53;21.90;51.70
1329;DHT22;658;48.820;9.354;2022-07-11T01:44:53;21.90;51.80
1329;DHT22;658;48.820;9.354;2022-07-11T01:48:54;21.90;51.80
1329;DHT22;658;48.820;9.354;2022-07-11T01:52:55;21.90;51.80
1329;DHT22;658;48.820;9.354;2022-07-11T01:56:55;21.90;51.90
1329;DHT22;658;48.820;9.354;2022-07-11T02:00:57;21.90;51.90
1329;DHT22;658;48.820;9.354;2022-07-11T02:04:58;21.90;51.90
1329;DHT22;658;48.820;9.354;2022-07-11T02:08:58;21.90;51.90
1329;DHT22;658;48.820;9.354;2022-07-11T02:13:00;21.90;51.90
1329;DHT22;658;48.820;9.354;2022-07-11T02:17:01;21.90;52.00
1329;DHT22;658;48.820;9.354;2022-07-11T02:21:01;21.90;52.10
1329;DHT22;658;48.820;9.354;2022-07-11T02:25:03;21.90;52.10
1329;DHT22;658;48.820;9.354;2022-07-11T02:29:03;21.90;52.20
1329;DHT22;658;48.820;9.354;2022-07-11T02:33:04;21.90;52.30
1329;DHT22;658;48.820;9.354;2022-07-11T02:37:07;21.90;52.30
1329;DHT22;658;48.820;9.354;2022-07-11T02:41:08;21.90;52.30
1329;DHT22;658;48.820;9.354;2022-07-11T02:45:09;21.90;52.40
1329;DHT22;658;48.820;9.354;2022-07-11T02:49:10;21.90;52.40
1329;DHT22;658;48.820;9.354;2022-07-11T02:53:10;21.90;52.50
1329;DHT22;658;48.820;9.354;2022-07-11T02:57:11;21.90;52.50
1329;DHT22;658;48.820;9.354;2022-07-11T03:01:11;21.90;52.60
1329;DHT22;658;48.820;9.354;2022-07-11T03:05:12;21.90;52.70
1329;DHT22;658;48.820;9.354;2022-07-11T03:09:15;21.80;53.30
1329;DHT22;658;48.820;9.354;2022-07-11T03:13:16;21.90;52.70
1329;DHT22;658;48.820;9.354;2022-07-11T03:17:17;21.80;52.70
1329;DHT22;658;48.820;9.354;2022-07-11T03:21:18;21.80;53.10
1329;DHT22;658;48.820;9.354;2022-07-11T03:25:18;21.80;52.80
1329;DHT22;658;48.820;9.354;2022-07-11T03:29:19;21.80;52.80
1329;DHT22;658;48.820;9.354;2022-07-11T03:33:20;21.80;52.90
1329;DHT22;658;48.820;9.354;2022-07-11T03:37:21;21.80;53.40
1329;DHT22;658;48.820;9.354;2022-07-11T03:41:21;21.80;52.90
1329;DHT22;658;48.820;9.354;2022-07-11T03:45:22;21.80;53.00
1329;DHT22;658;48.820;9.354;2022-07-11T03:49:22;21.80;52.90
1329;DHT22;658;48.820;9.354;2022-07-11T03:53:23;21.90;53.00
1329;DHT22;658;48.820;9.354;2022-07-11T03:57:24;21.80;53.00
1329;DHT22;658;48.820;9.354;2022-07-11T04:01:25;21.80;53.10
1329;DHT22;658;48.820;9.354;2022-07-11T04:05:26;21.80;53.10
1329;DHT22;658;48.820;9.354;2022-07-11T04:09:27;21.80;53.10
1329;DHT22;658;48.820;9.354;2022-07-11T04:13:29;21.80;53.10
1329;DHT22;658;48.820;9.354;2022-07-11T04:17:29;21.80;53.10
1329;DHT22;658;48.820;9.354;2022-07-11T04:21:30;21.80;53.10
1329;DHT22;658;48.820;9.354;2022-07-11T04:25:31;21.80;53.20
1329;DHT22;658;48.820;9.354;2022-07-11T04:29:33;21.80;53.20
1329;DHT22;658;48.820;9.354;2022-07-11T04:33:33;21.80;53.10
1329;DHT22;658;48.820;9.354;2022-07-11T04:37:34;21.90;53.10
1329;DHT22;658;48.820;9.354;2022-07-11T04:41:35;21.90;53.10
1329;DHT22;658;48.820;9.354;2022-07-11T04:45:35;21.90;53.00
1329;DHT22;658;48.820;9.354;2022-07-11T04:49:36;21.90;53.30
1329;DHT22;658;48.820;9.354;2022-07-11T04:53:38;21.90;53.10
1329;DHT22;658;48.820;9.354;2022-07-11T04:57:38;21.90;53.00
1329;DHT22;658;48.820;9.354;2022-07-11T05:01:39;21.90;53.00
1329;DHT22;658;48.820;9.354;2022-07-11T05:05:39;22.00;52.90
1329;DHT22;658;48.820;9.354;2022-07-11T05:09:40;22.00;53.00
1329;DHT22;658;48.820;9.354;2022-07-11T05:13:41;22.00;53.40
1329;DHT22;658;48.820;9.354;2022-07-11T05:17:42;22.00;54.00
1329;DHT22;658;48.820;9.354;2022-07-11T05:21:42;22.00;54.30
1329;DHT22;658;48.820;9.354;2022-07-11T05:25:43;22.00;54.20
1329;DHT22;658;48.820;9.354;2022-07-11T05:29:43;22.00;54.20
1329;DHT22;658;48.820;9.354;2022-07-11T05:33:44;22.00;54.30
1329;DHT22;658;48.820;9.354;2022-07-11T05:37:45;22.00;54.20
1329;DHT22;658;48.820;9.354;2022-07-11T05:41:46;22.20;53.90
1329;DHT22;658;48.820;9.354;2022-07-11T05:45:46;22.30;53.50
1329;DHT22;658;48.820;9.354;2022-07-11T05:49:47;22.50;53.30
1329;DHT22;658;48.820;9.354;2022-07-11T05:53:47;22.60;53.10
1329;DHT22;658;48.820;9.354;2022-07-11T05:57:48;22.70;52.80
1329;DHT22;658;48.820;9.354;2022-07-11T06:01:49;22.80;52.70
1329;DHT22;658;48.820;9.354;2022-07-11T06:05:49;22.90;52.50
1329;DHT22;658;48.820;9.354;2022-07-11T06:09:50;23.00;52.30
1329;DHT22;658;48.820;9.354;2022-07-11T06:13:51;23.00;52.00
1329;DHT22;658;48.820;9.354;2022-07-11T06:17:52;23.10;52.00
1329;DHT22;658;48.820;9.354;2022-07-11T06:21:52;23.20;51.80
1329;DHT22;658;48.820;9.354;2022-07-11T06:25:54;23.20;51.80
1329;DHT22;658;48.820;9.354;2022-07-11T06:29:55;23.20;51.90
1329;DHT22;658;48.820;9.354;2022-07-11T06:33:56;23.20;52.40
1329;DHT22;658;48.820;9.354;2022-07-11T06:37:57;23.20;51.70
1329;DHT22;658;48.820;9.354;2022-07-11T06:41:58;23.30;52.00
1329;DHT22;658;48.820;9.354;2022-07-11T06:45:59;23.40;51.70
1329;DHT22;658;48.820;9.354;2022-07-11T06:50:00;23.50;51.70
1329;DHT22;658;48.820;9.354;2022-07-11T06:54:01;23.60;51.50
1329;DHT22;658;48.820;9.354;2022-07-11T06:58:01;23.60;52.70
1329;DHT22;658;48.820;9.354;2022-07-11T07:02:02;23.70;51.40
1329;DHT22;658;48.820;9.354;2022-07-11T07:06:03;23.70;51.30
1329;DHT22;658;48.820;9.354;2022-07-11T07:10:04;23.80;51.20
1329;DHT22;658;48.820;9.354;2022-07-11T07:14:05;23.80;51.00
1329;DHT22;658;48.820;9.354;2022-07-11T07:18:06;23.90;51.00
1329;DHT22;658;48.820;9.354;2022-07-11T07:22:07;23.90;50.80
1329;DHT22;658;48.820;9.354;2022-07-11T07:26:08;24.00;50.80
1329;DHT22;658;48.820;9.354;2022-07-11T07:30:10;24.00;50.70
1329;DHT22;658;48.820;9.354;2022-07-11T07:34:11;24.10;51.30
1329;DHT22;658;48.820;9.354;2022-07-11T07:38:11;24.10;50.50
1329;DHT22;658;48.820;9.354;2022-07-11T07:42:13;24.10;50.60
1329;DHT22;658;48.820;9.354;2022-07-11T07:46:14;24.10;50.50
1329;DHT22;658;48.820;9.354;2022-07-11T07:50:14;24.20;50.50
1329;DHT22;658;48.820;9.354;2022-07-11T07:54:15;24.10;52.90
1329;DHT22;658;48.820;9.354;2022-07-11T07:58:15;24.30;50.40
1329;DHT22;658;48.820;9.354;2022-07-11T08:02:16;24.30;50.20
1329;DHT22;658;48.820;9.354;2022-07-11T08:06:17;24.40;50.30
1329;DHT22;658;48.820;9.354;2022-07-11T08:10:18;24.40;50.50
1329;DHT22;658;48.820;9.354;2022-07-11T08:14:18;24.30;50.50
1329;DHT22;658;48.820;9.354;2022-07-11T08:18:19;24.40;50.80
1329;DHT22;658;48.820;9.354;2022-07-11T08:22:20;24.40;50.60
1329;DHT22;658;48.820;9.354;2022-07-11T08:26:21;24.40;50.70
1329;DHT22;658;48.820;9.354;2022-07-11T08:30:21;24.40;50.90
1329;DHT22;658;48.820;9.354;2022-07-11T08:34:22;24.50;50.60
1329;DHT22;658;48.820;9.354;2022-07-11T08:38:22;24.50;50.60
1329;DHT22;658;48.820;9.354;2022-07-11T08:42:23;24.50;50.50
1329;DHT22;658;48.820;9.354;2022-07-11T08:46:29;24.50;50.30
1329;DHT22;658;48.820;9.354;2022-07-11T08:50:30;24.60;50.20
1329;DHT22;658;48.820;9.354;2022-07-11T08:54:30;24.60;50.70
1329;DHT22;658;48.820;9.354;2022-07-11T08:58:31;24.60;50.20
1329;DHT22;658;48.820;9.354;2022-07-11T09:02:32;24.60;50.10
1329;DHT22;658;48.820;9.354;2022-07-11T09:06:33;24.60;50.10
1329;DHT22;658;48.820;9.354;2022-07-11T09:10:39;24.70;50.00
1329;DHT22;658;48.820;9.354;2022-07-11T09:14:49;24.80;50.00
1329;DHT22;658;48.820;9.354;2022-07-11T09:18:50;24.70;49.60
1329;DHT22;658;48.820;9.354;2022-07-11T09:22:50;24.80;49.80
1329;DHT22;658;48.820;9.354;2022-07-11T09:27:10;24.80;49.60
1329;DHT22;658;48.820;9.354;2022-07-11T09:31:16;24.80;49.50
1329;DHT22;658;48.820;9.354;2022-07-11T09:35:18;24.80;49.20
1329;DHT22;658;48.820;9.354;2022-07-11T09:39:26;24.80;49.20
1329;DHT22;658;48.820;9.354;2022-07-11T09:43:27;24.90;49.10
1329;DHT22;658;48.820;9.354;2022-07-11T09:47:28;24.90;48.90
1329;DHT22;658;48.820;9.354;2022-07-11T09:51:43;25.00;48.80
1329;DHT22;658;48.820;9.354;2022-07-11T09:55:45;25.00;48.80
1329;DHT22;658;48.820;9.354;2022-07-11T09:59:54;25.10;48.50
1329;DHT22;658;48.820;9.354;2022-07-11T10:03:56;25.10;48.40
1329;DHT22;658;48.820;9.354;2022-07-11T10:07:58;25.00;48.30
1329;DHT22;658;48.820;9.354;2022-07-11T10:11:58;25.10;48.50
1329;DHT22;658;48.820;9.354;2022-07-11T10:16:01;25.20;48.30
1329;DHT22;658;48.820;9.354;2022-07-11T10:28:41;25.30;47.70
1329;DHT22;658;48.820;9.354;2022-07-11T10:32:58;25.40;47.80
1329;DHT22;658;48.820;9.354;2022-07-11T10:37:01;25.50;47.60
1329;DHT22;658;48.820;9.354;2022-07-11T10:41:02;25.60;47.50
1329;DHT22;658;48.820;9.354;2022-07-11T10:45:07;25.70;47.50
1329;DHT22;658;48.820;9.354;2022-07-11T10:53:22;25.70;47.60
1329;DHT22;658;48.820;9.354;2022-07-11T10:57:27;25.70;47.40
1329;DHT22;658;48.820;9.354;2022-07-11T11:01:29;25.70;46.90
1329;DHT22;658;48.820;9.354;2022-07-11T11:05:47;25.80;46.80
1329;DHT22;658;48.820;9.354;2022-07-11T11:09:48;25.90;47.00
1329;DHT22;658;48.820;9.354;2022-07-11T11:14:23;26.00;46.70
1329;DHT22;658;48.820;9.354;2022-07-11T11:18:30;25.90;47.20
1329;DHT22;658;48.820;9.354;2022-07-11T11:22:34;25.70;46.80
1329;DHT22;658;48.820;9.354;2022-07-11T11:30:56;25.80;46.80
1329;DHT22;658;48.820;9.354;2022-07-11T11:34:58;25.90;47.00
1329;DHT22;658;48.820;9.354;2022-07-11T11:38:59;25.90;47.00
1329;DHT22;658;48.820;9.354;2022-07-11T11:43:00;25.80;47.20
1329;DHT22;658;48.820;9.354;2022-07-11T11:47:01;25.70;47.30
1329;DHT22;658;48.820;9.354;2022-07-11T11:51:02;25.90;47.10
1329;DHT22;658;48.820;9.354;2022-07-11T11:55:03;26.20;46.20
1329;DHT22;658;48.820;9.354;2022-07-11T11:59:10;26.40;45.50
1329;DHT22;658;48.820;9.354;2022-07-11T12:03:13;26.40;45.60
1329;DHT22;658;48.820;9.354;2022-07-11T12:07:13;26.50;45.60
1329;DHT22;658;48.820;9.354;2022-07-11T12:11:14;26.50;45.60
1329;DHT22;658;48.820;9.354;2022-07-11T12:15:30;26.50;46.00
1329;DHT22;658;48.820;9.354;2022-07-11T12:19:34;26.50;46.00
1329;DHT22;658;48.820;9.354;2022-07-11T12:23:35;26.60;45.60
1329;DHT22;658;48.820;9.354;2022-07-11T12:27:36;26.50;45.70
1329;DHT22;658;48.820;9.354;2022-07-11T12:32:01;26.30;45.80
1329;DHT22;658;48.820;9.354;2022-07-11T12:36:10;26.30;46.20
1329;DHT22;658;48.820;9.354;2022-07-11T12:40:12;26.20;46.40
1329;DHT22;658;48.820;9.354;2022-07-11T12:44:24;26.20;46.60
1329;DHT22;658;48.820;9.354;2022-07-11T12:48:44;26.20;46.80
1329;DHT22;658;48.820;9.354;2022-07-11T12:52:47;26.20;46.80
1329;DHT22;658;48.820;9.354;2022-07-11T12:56:56;26.00;47.00
1329;DHT22;658;48.820;9.354;2022-07-11T13:00:59;26.10;47.10
1329;DHT22;658;48.820;9.354;2022-07-11T13:05:00;26.10;47.30
1329;DHT22;658;48.820;9.354;2022-07-11T13:09:00;26.10;47.30
1329;DHT22;658;48.820;9.354;2022-07-11T13:13:01;26.20;47.10
1329;DHT22;658;48.820;9.354;2022-07-11T13:17:02;26.20;47.10
1329;DHT22;658;48.820;9.354;2022-07-11T13:21:03;26.20;47.20
1329;DHT22;658;48.820;9.354;2022-07-11T13:25:04;26.30;47.00
1329;DHT22;658;48.820;9.354;2022-07-11T13:29:05;26.30;47.10
1329;DHT22;658;48.820;9.354;2022-07-11T13:33:05;26.30;47.00
1329;DHT22;658;48.820;9.354;2022-07-11T13:37:06;26.30;47.10
1329;DHT22;658;48.820;9.354;2022-07-11T13:41:08;26.30;47.30
1329;DHT22;658;48.820;9.354;2022-07-11T13:45:09;26.20;47.20
1329;DHT22;658;48.820;9.354;2022-07-11T13:49:09;26.20;47.70
1329;DHT22;658;48.820;9.354;2022-07-11T13:53:12;26.30;47.70
1329;DHT22;658;48.820;9.354;2022-07-11T13:57:13;26.30;47.40
1329;DHT22;658;48.820;9.354;2022-07-11T14:01:14;26.30;47.80
1329;DHT22;658;48.820;9.354;2022-07-11T14:05:15;26.30;47.70
1329;DHT22;658;48.820;9.354;2022-07-11T14:09:15;26.40;47.80
1329;DHT22;658;48.820;9.354;2022-07-11T14:13:19;26.40;47.70
1329;DHT22;658;48.820;9.354;2022-07-11T14:17:20;26.40;47.60
1329;DHT22;658;48.820;9.354;2022-07-11T14:21:21;26.40;47.40
1329;DHT22;658;48.820;9.354;2022-07-11T14:25:21;26.40;47.20
1329;DHT22;658;48.820;9.354;2022-07-11T14:29:24;26.40;47.30
1329;DHT22;658;48.820;9.354;2022-07-11T14:33:25;26.40;47.20
1329;DHT22;658;48.820;9.354;2022-07-11T14:37:26;26.40;47.20
1329;DHT22;658;48.820;9.354;2022-07-11T14:41:27;26.40;47.40
1329;DHT22;658;48.820;9.354;2022-07-11T14:45:27;26.40;47.40
1329;DHT22;658;48.820;9.354;2022-07-11T14:49:28;26.40;47.30
1329;DHT22;658;48.820;9.354;2022-07-11T14:53:29;26.30;47.30
1329;DHT22;658;48.820;9.354;2022-07-11T14:57:30;26.30;47.30
1329;DHT22;658;48.820;9.354;2022-07-11T15:01:31;26.20;47.50
1329;DHT22;658;48.820;9.354;2022-07-11T15:05:32;26.10;47.70
1329;DHT22;658;48.820;9.354;2022-07-11T15:09:33;26.10;47.40
1329;DHT22;658;48.820;9.354;2022-07-11T15:13:52;26.10;47.30
1329;DHT22;658;48.820;9.354;2022-07-11T15:17:53;26.10;47.30
1329;DHT22;658;48.820;9.354;2022-07-11T15:21:53;26.10;47.30
1329;DHT22;658;48.820;9.354;2022-07-11T15:25:54;26.00;47.30
1329;DHT22;658;48.820;9.354;2022-07-11T15:29:54;26.10;47.40
1329;DHT22;658;48.820;9.354;2022-07-11T15:33:55;26.00;47.40
1329;DHT22;658;48.820;9.354;2022-07-11T15:37:56;26.10;47.30
1329;DHT22;658;48.820;9.354;2022-07-11T15:41:56;26.20;47.90
1329;DHT22;658;48.820;9.354;2022-07-11T15:45:58;26.30;47.90
1329;DHT22;658;48.820;9.354;2022-07-11T15:49:58;26.40;48.30
1329;DHT22;658;48.820;9.354;2022-07-11T15:53:59;26.30;47.60
1329;DHT22;658;48.820;9.354;2022-07-11T15:58:00;26.10;47.60
1329;DHT22;658;48.820;9.354;2022-07-11T16:02:01;26.10;47.60
1329;DHT22;658;48.820;9.354;2022-07-11T16:06:02;26.10;47.50
1329;DHT22;658;48.820;9.354;2022-07-11T16:10:03;26.10;47.40
1329;DHT22;658;48.820;9.354;2022-07-11T16:14:05;26.10;47.60
1329;DHT22;658;48.820;9.354;2022-07-11T16:18:06;26.10;47.60
1329;DHT22;658;48.820;9.354;2022-07-11T16:22:06;26.10;47.20
1329;DHT22;658;48.820;9.354;2022-07-11T16:26:07;26.20;47.00
1329;DHT22;658;48.820;9.354;2022-07-11T16:30:08;26.30;47.20
1329;DHT22;658;48.820;9.354;2022-07-11T16:34:09;26.20;47.90
1329;DHT22;658;48.820;9.354;2022-07-11T16:38:10;26.20;47.40
1329;DHT22;658;48.820;9.354;2022-07-11T16:42:10;26.10;47.40
1329;DHT22;658;48.820;9.354;2022-07-11T16:46:30;26.20;47.50
1329;DHT22;658;48.820;9.354;2022-07-11T16:50:31;26.30;47.10
1329;DHT22;658;48.820;9.354;2022-07-11T16:54:31;26.30;47.00
1329;DHT22;658;48.820;9.354;2022-07-11T16:58:32;26.30;46.90
1329;DHT22;658;48.820;9.354;2022-07-11T17:02:33;26.30;46.90
1329;DHT22;658;48.820;9.354;2022-07-11T17:06:33;26.30;47.10
1329;DHT22;658;48.820;9.354;2022-07-11T17:10:34;26.20;47.20
1329;DHT22;658;48.820;9.354;2022-07-11T17:14:35;26.20;47.30
1329;DHT22;658;48.820;9.354;2022-07-11T17:18:36;26.20;47.20
1329;DHT22;658;48.820;9.354;2022-07-11T17:22:38;26.30;46.70
1329;DHT22;658;48.820;9.354;2022-07-11T17:26:38;26.30;46.90
1329;DHT22;658;48.820;9.354;2022-07-11T17:30:40;26.30;46.70
1329;DHT22;658;48.820;9.354;2022-07-11T17:34:41;26.40;46.80
1329;DHT22;658;48.820;9.354;2022-07-11T17:38:43;26.30;46.70
1329;DHT22;658;48.820;9.354;2022-07-11T17:42:44;26.30;46.80
1329;DHT22;658;48.820;9.354;2022-07-11T17:46:45;26.30;46.90
1329;DHT22;658;48.820;9.354;2022-07-11T17:50:47;26.30;47.00
1329;DHT22;658;48.820;9.354;2022-07-11T17:54:48;26.20;47.10
1329;DHT22;658;48.820;9.354;2022-07-11T17:58:48;26.30;47.30
1329;DHT22;658;48.820;9.354;2022-07-11T18:02:49;26.30;47.40
1329;DHT22;658;48.820;9.354;2022-07-11T18:06:50;26.30;47.30
1329;DHT22;658;48.820;9.354;2022-07-11T18:10:51;26.20;47.30
1329;DHT22;658;48.820;9.354;2022-07-11T18:14:55;26.30;47.50
1329;DHT22;658;48.820;9.354;2022-07-11T18:18:56;26.30;47.50
1329;DHT22;658;48.820;9.354;2022-07-11T18:22:56;26.20;47.60
1329;DHT22;658;48.820;9.354;2022-07-11T18:26:57;26.20;47.60
1329;DHT22;658;48.820;9.354;2022-07-11T18:30:58;26.20;47.80
1329;DHT22;658;48.820;9.354;2022-07-11T18:34:58;26.20;47.80
1329;DHT22;658;48.820;9.354;2022-07-11T18:39:00;26.10;47.80
1329;DHT22;658;48.820;9.354;2022-07-11T18:43:19;26.00;48.10
1329;DHT22;658;48.820;9.354;2022-07-11T18:47:20;26.10;48.30
1329;DHT22;658;48.820;9.354;2022-07-11T18:51:21;26.00;48.50
1329;DHT22;658;48.820;9.354;2022-07-11T18:55:22;26.00;48.70
1329;DHT22;658;48.820;9.354;2022-07-11T18:59:23;25.90;48.90
1329;DHT22;658;48.820;9.354;2022-07-11T19:03:24;25.90;49.50
1329;DHT22;658;48.820;9.354;2022-07-11T19:07:24;25.90;49.40
1329;DHT22;658;48.820;9.354;2022-07-11T19:11:25;25.80;49.70
1329;DHT22;658;48.820;9.354;2022-07-11T19:15:26;25.80;50.00
1329;DHT22;658;48.820;9.354;2022-07-11T19:19:27;25.90;50.80
1329;DHT22;658;48.820;9.354;2022-07-11T19:23:27;26.00;50.50
1329;DHT22;658;48.820;9.354;2022-07-11T19:27:29;26.00;50.70
1329;DHT22;658;48.820;9.354;2022-07-11T19:31:31;26.00;50.60
1329;DHT22;658;48.820;9.354;2022-07-11T19:35:31;26.00;51.00
1329;DHT22;658;48.820;9.354;2022-07-11T19:39:32;25.90;50.90
1329;DHT22;658;48.820;9.354;2022-07-11T19:43:33;25.90;51.00
1329;DHT22;658;48.820;9.354;2022-07-11T19:47:33;25.20;52.50
1329;DHT22;658;48.820;9.354;2022-07-11T19:51:34;24.90;53.30
1329;DHT22;658;48.820;9.354;2022-07-11T19:55:35;24.70;53.90
1329;DHT22;658;48.820;9.354;2022-07-11T19:59:55;24.50;54.20
1329;DHT22;658;48.820;9.354;2022-07-11T20:03:58;24.30;54.80
1329;DHT22;658;48.820;9.354;2022-07-11T20:07:59;24.10;55.30
1329;DHT22;658;48.820;9.354;2022-07-11T20:12:00;23.90;55.60
1329;DHT22;658;48.820;9.354;2022-07-11T20:16:01;23.80;55.90
1329;DHT22;658;48.820;9.354;2022-07-11T20:20:02;23.70;55.90
1329;DHT22;658;48.820;9.354;2022-07-11T20:24:03;23.60;55.80
1329;DHT22;658;48.820;9.354;2022-07-11T20:28:04;23.60;56.00
1329;DHT22;658;48.820;9.354;2022-07-11T20:32:05;23.50;56.10
1329;DHT22;658;48.820;9.354;2022-07-11T20:36:06;23.40;56.30
1329;DHT22;658;48.820;9.354;2022-07-11T20:40:07;23.30;56.70
1329;DHT22;658;48.820;9.354;2022-07-11T20:44:07;23.20;56.80
1329;DHT22;658;48.820;9.354;2022-07-11T20:48:08;23.10;57.00
1329;DHT22;658;48.820;9.354;2022-07-11T20:52:09;23.00;57.00
1329;DHT22;658;48.820;9.354;2022-07-11T20:56:10;23.00;57.20
1329;DHT22;658;48.820;9.354;2022-07-11T21:00:11;22.90;57.50
1329;DHT22;658;48.820;9.354;2022-07-11T21:04:13;23.00;57.30
1329;DHT22;658;48.820;9.354;2022-07-11T21:08:14;23.20;56.70
1329;DHT22;658;48.820;9.354;2022-07-11T21:12:14;23.30;56.30
1329;DHT22;658;48.820;9.354;2022-07-11T21:16:15;23.30;55.90
1329;DHT22;658;48.820;9.354;2022-07-11T21:20:16;23.30;55.90
1329;DHT22;658;48.820;9.354;2022-07-11T21:24:16;23.50;55.80
1329;DHT22;658;48.820;9.354;2022-07-11T21:28:17;23.50;55.50
1329;DHT22;658;48.820;9.354;2022-07-11T21:32:18;23.50;55.40
1329;DHT22;658;48.820;9.354;2022-07-11T21:36:18;23.50;55.30
1329;DHT22;658;48.820;9.354;2022-07-11T21:40:19;23.60;55.20
1329;DHT22;658;48.820;9.354;2022-07-11T21:44:20;23.50;55.20
1329;DHT22;658;48.820;9.354;2022-07-11T21:48:21;23.60;55.20
1329;DHT22;658;48.820;9.354;2022-07-11T21:52:22;23.60;55.10
1329;DHT22;658;48.820;9.354;2022-07-11T21:56:22;23.60;55.10
1329;DHT22;658;48.820;9.354;2022-07-11T22:00:23;23.60;55.20
1329;DHT22;658;48.820;9.354;2022-07-11T22:04:27;23.60;55.30
1329;DHT22;658;48.820;9.354;2022-07-11T22:08:28;23.50;55.50
1329;DHT22;658;48.820;9.354;2022-07-11T22:12:28;23.50;55.40
1329;DHT22;658;48.820;9.354;2022-07-11T22:16:29;23.50;55.40
1329;DHT22;658;48.820;9.354;2022-07-11T22:20:29;23.50;55.50
1329;DHT22;658;48.820;9.354;2022-07-11T22:24:30;23.40;55.50
1329;DHT22;658;48.820;9.354;2022-07-11T22:28:31;23.40;55.70
1329;DHT22;658;48.820;9.354;2022-07-11T22:32:31;23.40;55.70
1329;DHT22;658;48.820;9.354;2022-07-11T22:36:32;23.30;55.90
1329;DHT22;658;48.820;9.354;2022-07-11T22:40:32;23.30;56.00
1329;DHT22;658;48.820;9.354;2022-07-11T22:44:33;23.30;55.90
1329;DHT22;658;48.820;9.354;2022-07-11T22:48:34;23.30;55.90
1329;DHT22;658;48.820;9.354;2022-07-11T22:52:34;23.40;55.90
1329;DHT22;658;48.820;9.354;2022-07-11T22:56:35;23.30;55.90
1329;DHT22;658;48.820;9.354;2022-07-11T23:00:36;23.40;56.50
1329;DHT22;658;48.820;9.354;2022-07-11T23:04:37;23.30;56.50
1329;DHT22;658;48.820;9.354;2022-07-11T23:08:37;23.30;56.10
1329;DHT22;658;48.820;9.354;2022-07-11T23:12:38;23.30;56.10
1329;DHT22;658;48.820;9.354;2022-07-11T23:16:39;23.30;56.20
